Time;durP1;ratioP1;P1;durP2;ratioP2;P2;SDS_P1;SDS_P2;PMS_P1;PMS_P2;Temp;Humidity;BMP_temperature;BMP_pressure;BME280_temperature;BME280_humidity;BME280_pressure;Samples;Min_cycle;Max_cycle;Signal;HPM_P1;HPM_P2
2021/09/28 00:00:35;;;;;;;5.70;3.20;;;;;;;10.71;71.27;100891.22;1680122;84;21055;-68
2021/09/28 00:03:02;;;;;;;4.17;3.27;;;;;;;10.64;71.41;100893.95;1699531;84;21017;-67
2021/09/28 00:05:28;;;;;;;4.10;3.35;;;;;;;10.58;71.60;100896.54;1675033;85;20984;-68
2021/09/28 00:07:56;;;;;;;4.28;2.90;;;;;;;10.55;71.69;100895.45;1683117;85;21024;-68
2021/09/28 00:10:23;;;;;;;4.00;3.17;;;;;;;10.52;71.80;100892.55;1683734;84;21855;-68
2021/09/28 00:12:50;;;;;;;5.05;3.00;;;;;;;10.49;71.97;100893.23;1683443;85;21000;-68
2021/09/28 00:15:17;;;;;;;4.60;3.52;;;;;;;10.47;72.00;100892.50;1683691;84;21064;-68
2021/09/28 00:17:46;;;;;;;5.37;3.37;;;;;;;10.46;72.01;100893.45;1656670;85;21008;-68
2021/09/28 00:20:14;;;;;;;5.08;3.20;;;;;;;10.44;72.04;100894.05;1673598;85;21011;-68
2021/09/28 00:22:43;;;;;;;5.85;3.08;;;;;;;10.42;71.98;100892.84;1674495;84;21148;-68
2021/09/28 00:25:10;;;;;;;4.55;2.85;;;;;;;10.33;72.08;100893.48;1683665;84;21011;-68
2021/09/28 00:27:38;;;;;;;4.85;2.80;;;;;;;10.25;72.08;100895.33;1683676;84;20984;-68
2021/09/28 00:30:06;;;;;;;3.95;2.98;;;;;;;10.17;72.21;100898.95;1682462;84;21072;-67
2021/09/28 00:32:34;;;;;;;4.72;3.02;;;;;;;10.11;72.30;100899.84;1686576;83;21091;-68
2021/09/28 00:35:00;;;;;;;4.25;3.05;;;;;;;10.06;72.33;100900.64;1697756;84;21877;-68
2021/09/28 00:37:27;;;;;;;5.20;2.75;;;;;;;10.00;72.36;100903.22;1659171;85;20980;-68
2021/09/28 00:39:53;;;;;;;3.62;2.90;;;;;;;9.93;72.44;100897.98;1669281;84;21002;-67
2021/09/28 00:42:20;;;;;;;3.95;2.87;;;;;;;9.88;72.52;100900.10;1648016;85;21427;-67
2021/09/28 00:44:46;;;;;;;3.58;2.77;;;;;;;9.80;72.63;100901.94;1666503;85;21511;-67
2021/09/28 00:47:14;;;;;;;6.05;3.15;;;;;;;9.72;72.70;100899.80;1676507;85;21839;-67
2021/09/28 00:49:46;;;;;;;6.15;2.98;;;;;;;9.68;72.78;100900.13;1673797;84;21671;-68
2021/09/28 00:52:15;;;;;;;3.27;2.98;;;;;;;9.63;72.77;100898.27;1695781;83;21029;-67
2021/09/28 00:54:44;;;;;;;4.95;3.27;;;;;;;9.56;72.80;100897.85;1681305;85;21456;-70
2021/09/28 00:57:10;;;;;;;3.85;3.12;;;;;;;9.52;73.03;100907.38;1678121;84;20967;-68
2021/09/28 00:59:38;;;;;;;2.80;2.50;;;;;;;9.44;73.03;100904.76;1677728;85;21834;-68
2021/09/28 01:02:10;;;;;;;5.70;2.90;;;;;;;9.37;72.98;100905.29;1676653;84;21506;-68
2021/09/28 01:04:37;;;;;;;6.30;3.00;;;;;;;9.30;72.93;100906.16;1678317;84;21443;-68
2021/09/28 01:07:05;;;;;;;3.62;2.65;;;;;;;9.22;72.89;100904.49;1678329;85;21059;-68
2021/09/28 01:09:33;;;;;;;4.33;2.92;;;;;;;9.15;72.89;100900.55;1678408;85;21536;-68
2021/09/28 01:12:00;;;;;;;4.58;2.60;;;;;;;9.07;72.90;100907.66;1679499;84;23020;-68
2021/09/28 01:14:27;;;;;;;4.62;2.80;;;;;;;8.96;72.89;100903.53;1676845;84;20953;-69
2021/09/28 01:16:54;;;;;;;5.05;2.95;;;;;;;8.91;72.89;100911.37;1672359;85;21035;-68
2021/09/28 01:19:21;;;;;;;5.10;2.90;;;;;;;8.84;72.88;100916.18;1678275;85;20972;-68
2021/09/28 01:21:50;;;;;;;3.80;2.90;;;;;;;8.78;72.90;100912.60;1678292;85;21059;-67
2021/09/28 01:24:18;;;;;;;6.33;3.15;;;;;;;8.72;73.06;100916.96;1649219;85;21940;-67
2021/09/28 01:26:44;;;;;;;4.78;3.20;;;;;;;8.69;73.20;100912.74;1678436;85;21480;-67
2021/09/28 01:29:11;;;;;;;4.87;3.20;;;;;;;8.65;73.23;100917.81;1678499;85;20964;-67
2021/09/28 01:31:39;;;;;;;5.47;3.40;;;;;;;8.62;73.24;100918.48;1677981;84;21015;-68
2021/09/28 01:34:07;;;;;;;5.92;2.90;;;;;;;8.59;73.32;100918.21;1676431;85;21015;-68
2021/09/28 01:36:36;;;;;;;7.08;3.15;;;;;;;8.54;73.35;100916.32;1677265;84;21865;-68
2021/09/28 01:39:03;;;;;;;5.25;3.22;;;;;;;8.46;73.40;100915.47;1623937;85;21070;-68
2021/09/28 01:41:30;;;;;;;5.03;3.30;;;;;;;8.41;73.54;100916.24;1677628;85;20992;-68
2021/09/28 01:44:08;;;;;;;5.25;3.37;;;;;;;8.38;73.74;100922.99;1679736;84;21510;-68
2021/09/28 01:46:37;;;;;;;4.30;3.42;;;;;;;8.37;73.76;100921.30;1677888;85;21498;-68
2021/09/28 01:49:04;;;;;;;4.60;3.10;;;;;;;8.35;73.83;100918.40;1655423;85;22574;-68
2021/09/28 01:51:30;;;;;;;5.47;3.83;;;;;;;8.30;74.04;100916.88;1677606;85;20951;-68
2021/09/28 01:53:57;;;;;;;4.80;3.27;;;;;;;8.33;74.63;100914.52;1678635;84;21030;-69
2021/09/28 01:56:29;;;;;;;5.72;3.00;;;;;;;8.32;74.65;100917.63;1671496;85;21130;-68
2021/09/28 01:58:57;;;;;;;5.50;3.62;;;;;;;8.28;74.66;100913.94;1676805;85;21528;-68
2021/09/28 02:01:24;;;;;;;7.53;3.50;;;;;;;8.24;74.64;100915.08;1674014;85;21838;-68
2021/09/28 02:03:51;;;;;;;6.50;3.10;;;;;;;8.21;74.63;100915.27;1658575;85;20964;-68
2021/09/28 02:06:20;;;;;;;6.00;3.30;;;;;;;8.19;74.59;100915.81;1673363;84;21439;-68
2021/09/28 02:08:49;;;;;;;4.67;3.40;;;;;;;8.16;74.66;100916.01;1675926;85;20980;-69
2021/09/28 02:11:15;;;;;;;4.78;3.20;;;;;;;8.15;74.71;100922.22;1678144;85;20982;-72
2021/09/28 02:13:42;;;;;;;5.03;3.80;;;;;;;8.11;74.69;100919.41;1672962;84;22207;-68
2021/09/28 02:16:10;;;;;;;7.28;3.50;;;;;;;8.06;74.68;100918.82;1649317;85;20912;-68
2021/09/28 02:18:37;;;;;;;4.45;3.40;;;;;;;8.03;74.65;100921.17;1672289;85;21025;-68
2021/09/28 02:21:03;;;;;;;5.45;3.30;;;;;;;7.96;74.64;100916.73;1677624;85;21071;-69
2021/09/28 02:23:30;;;;;;;6.42;3.92;;;;;;;7.92;74.61;100914.41;1677974;84;21566;-68
2021/09/28 02:25:56;;;;;;;4.03;3.50;;;;;;;7.89;74.61;100922.45;1678146;85;22884;-68
2021/09/28 02:28:23;;;;;;;7.67;3.42;;;;;;;7.84;74.60;100924.05;1674951;84;21038;-69
2021/09/28 02:30:52;;;;;;;5.80;3.50;;;;;;;7.81;74.58;100925.53;1677770;85;21041;-68
2021/09/28 02:33:19;;;;;;;7.37;4.05;;;;;;;7.78;74.56;100932.30;1692843;84;20980;-68
2021/09/28 02:35:45;;;;;;;5.47;4.37;;;;;;;7.76;74.88;100931.55;1702487;82;21567;-69
2021/09/28 02:38:13;;;;;;;5.80;4.75;;;;;;;7.74;74.89;100925.06;1698476;84;21867;-68
2021/09/28 02:40:39;;;;;;;11.22;5.80;;;;;;;7.70;74.83;100926.16;1674244;84;21368;-68
2021/09/28 02:43:06;;;;;;;8.43;5.95;;;;;;;7.67;74.86;100930.77;1676662;84;21053;-69
2021/09/28 02:45:33;;;;;;;11.18;7.05;;;;;;;7.64;74.91;100925.70;1702968;84;21032;-68
2021/09/28 02:47:59;;;;;;;12.95;8.93;;;;;;;7.61;74.92;100931.95;1698379;84;20968;-68
2021/09/28 02:50:26;;;;;;;11.48;7.72;;;;;;;7.58;75.00;100933.46;1683055;83;21777;-68
2021/09/28 02:52:53;;;;;;;9.73;7.12;;;;;;;7.58;75.02;100936.09;1696588;84;21073;-69
2021/09/28 02:55:19;;;;;;;9.13;5.72;;;;;;;7.57;75.05;100933.55;1702831;84;20989;-72
2021/09/28 02:57:45;;;;;;;11.63;6.17;;;;;;;7.56;75.07;100933.18;1701950;84;21405;-69
2021/09/28 03:00:13;;;;;;;8.55;5.75;;;;;;;7.52;75.04;100933.80;1694592;84;21111;-68
2021/09/28 03:02:40;;;;;;;10.50;5.22;;;;;;;7.50;75.04;100933.05;1702915;84;22674;-69
2021/09/28 03:05:07;;;;;;;6.58;4.83;;;;;;;7.49;75.01;100935.77;1701659;84;21035;-68
2021/09/28 03:07:33;;;;;;;5.20;3.90;;;;;;;7.46;75.03;100931.55;1681938;84;21518;-70
2021/09/28 03:10:00;;;;;;;4.50;3.87;;;;;;;7.42;75.08;100936.11;1696028;84;21027;-68
2021/09/28 03:12:27;;;;;;;4.25;3.83;;;;;;;7.36;75.01;100935.17;1701110;84;21439;-68
2021/09/28 03:14:55;;;;;;;5.45;3.80;;;;;;;7.32;75.05;100940.20;1702482;84;22293;-68
2021/09/28 03:17:21;;;;;;;4.15;3.70;;;;;;;7.26;75.04;100932.69;1696302;84;20968;-68
2021/09/28 03:19:49;;;;;;;7.87;4.12;;;;;;;7.22;75.03;100942.97;1700634;84;21047;-68
2021/09/28 03:22:18;;;;;;;5.25;3.60;;;;;;;7.16;75.00;100942.02;1701824;84;21028;-68
2021/09/28 03:24:44;;;;;;;5.53;3.90;;;;;;;7.13;75.01;100935.14;1702941;84;21037;-68
2021/09/28 03:27:10;;;;;;;5.28;4.33;;;;;;;7.11;75.02;100942.73;1702202;84;22337;-68
2021/09/28 03:29:38;;;;;;;5.37;3.90;;;;;;;7.08;75.05;100941.13;1702627;83;20948;-68
2021/09/28 03:32:07;;;;;;;6.33;3.65;;;;;;;7.07;75.08;100947.79;1699149;84;21497;-68
2021/09/28 03:34:33;;;;;;;5.08;4.00;;;;;;;7.05;75.16;100949.66;1677465;84;20992;-68
2021/09/28 03:37:00;;;;;;;5.40;4.10;;;;;;;7.03;75.10;100948.41;1677624;85;21000;-69
2021/09/28 03:39:26;;;;;;;5.95;4.22;;;;;;;7.01;75.06;100945.49;1643533;85;22223;-68
2021/09/28 03:41:52;;;;;;;6.90;4.35;;;;;;;6.99;74.98;100947.36;1673250;85;21082;-68
2021/09/28 03:44:19;;;;;;;7.08;4.28;;;;;;;6.98;74.97;100949.61;1673729;84;21008;-68
2021/09/28 03:46:45;;;;;;;8.23;3.80;;;;;;;6.96;75.02;100951.02;1678499;85;21471;-68
2021/09/28 03:49:12;;;;;;;8.20;4.20;;;;;;;6.96;75.06;100958.89;1678464;84;21005;-68
2021/09/28 03:51:38;;;;;;;6.05;4.20;;;;;;;6.89;75.08;100961.00;1660642;85;22198;-68
2021/09/28 03:54:06;;;;;;;6.22;4.25;;;;;;;6.86;75.07;100962.95;1671341;85;21049;-68
2021/09/28 03:56:34;;;;;;;4.60;3.77;;;;;;;6.85;75.08;100958.61;1678075;85;21036;-68
2021/09/28 03:59:00;;;;;;;4.25;3.70;;;;;;;6.83;75.03;100964.41;1648901;85;21513;-68
2021/09/28 04:01:27;;;;;;;7.22;3.70;;;;;;;6.79;75.03;100963.74;1651445;85;21122;-68
2021/09/28 04:03:55;;;;;;;8.40;4.10;;;;;;;6.78;74.98;100962.52;1663780;84;21993;-68
2021/09/28 04:06:21;;;;;;;6.62;3.90;;;;;;;6.74;74.99;100964.45;1666827;86;20937;-68
2021/09/28 04:08:48;;;;;;;6.40;3.72;;;;;;;6.70;75.00;100970.80;1654795;85;21045;-68
2021/09/28 04:11:15;;;;;;;7.37;4.00;;;;;;;6.67;75.02;100975.38;1634919;85;21433;-68
2021/09/28 04:13:47;;;;;;;8.53;4.05;;;;;;;6.64;75.02;100981.62;1665546;85;21143;-68
2021/09/28 04:16:11;;;;;;;6.75;4.20;;;;;;;6.63;75.09;100983.86;1699684;83;21835;-68
2021/09/28 04:18:37;;;;;;;7.95;4.15;;;;;;;6.61;75.13;100976.55;1693157;84;20956;-68
2021/09/28 04:21:04;;;;;;;8.10;3.92;;;;;;;6.62;75.16;100978.23;1700288;84;21439;-68
2021/09/28 04:23:30;;;;;;;5.72;3.40;;;;;;;6.60;75.27;100983.57;1699801;82;20993;-68
2021/09/28 04:25:58;;;;;;;5.35;3.50;;;;;;;6.61;75.37;100989.66;1699522;84;21371;-68
2021/09/28 04:28:25;;;;;;;4.37;3.50;;;;;;;6.60;75.42;100986.20;1696493;84;22828;-71
2021/09/28 04:30:51;;;;;;;6.78;4.20;;;;;;;6.62;75.46;100987.89;1696865;84;21011;-68
2021/09/28 04:33:18;;;;;;;4.85;4.05;;;;;;;6.65;75.50;100993.81;1688772;84;21019;-68
2021/09/28 04:35:45;;;;;;;5.03;3.95;;;;;;;6.69;75.58;100995.83;1699735;84;21491;-69
2021/09/28 04:38:12;;;;;;;5.90;3.83;;;;;;;6.71;75.68;100995.27;1682458;84;21486;-70
2021/09/28 04:40:39;;;;;;;7.47;5.05;;;;;;;6.74;75.80;100994.63;1698879;84;21841;-69
2021/09/28 04:43:05;;;;;;;5.83;4.72;;;;;;;6.77;75.90;100996.27;1672077;85;21132;-70
2021/09/28 04:45:32;;;;;;;9.20;5.60;;;;;;;6.84;75.97;100995.83;1701926;84;21022;-72
2021/09/28 04:47:58;;;;;;;7.53;5.58;;;;;;;6.93;76.28;100990.55;1684458;84;21420;-70
2021/09/28 04:50:24;;;;;;;7.42;5.87;;;;;;;7.07;76.64;100992.44;1700380;84;21071;-68
2021/09/28 04:52:51;;;;;;;7.62;5.65;;;;;;;7.19;76.84;100999.64;1677793;84;21890;-68
2021/09/28 04:55:17;;;;;;;10.95;5.70;;;;;;;7.29;77.00;100995.56;1677031;84;21391;-71
2021/09/28 04:57:44;;;;;;;7.53;6.08;;;;;;;7.40;77.17;101001.53;1703370;84;21110;-71
2021/09/28 05:00:12;;;;;;;9.93;6.08;;;;;;;7.51;77.41;100995.67;1698001;83;21047;-70
2021/09/28 05:02:38;;;;;;;11.45;6.62;;;;;;;7.60;77.58;100994.67;1689044;84;21522;-70
2021/09/28 05:05:06;;;;;;;9.53;5.60;;;;;;;7.71;77.73;101000.16;1684547;85;21850;-69
2021/09/28 05:07:32;;;;;;;7.72;5.62;;;;;;;7.79;77.79;101001.05;1698844;84;21285;-72
2021/09/28 05:09:59;;;;;;;7.10;5.72;;;;;;;7.85;77.88;101001.17;1676636;84;21146;-69
2021/09/28 05:12:26;;;;;;;6.92;5.92;;;;;;;7.91;77.92;101006.93;1702162;84;21697;-69
2021/09/28 05:14:56;;;;;;;7.35;6.03;;;;;;;7.97;77.98;101006.55;1698706;84;21084;-67
2021/09/28 05:17:25;;;;;;;7.35;5.95;;;;;;;8.02;78.01;101004.52;1701172;82;21058;-67
2021/09/28 05:19:51;;;;;;;7.08;5.97;;;;;;;8.09;78.08;101006.30;1671994;85;21003;-65
2021/09/28 05:22:19;;;;;;;8.18;6.25;;;;;;;8.15;78.11;101004.62;1685838;85;21016;-67
2021/09/28 05:24:46;;;;;;;7.45;6.08;;;;;;;8.22;78.12;101009.91;1701148;84;21086;-67
2021/09/28 05:27:14;;;;;;;9.88;7.12;;;;;;;8.29;78.18;101006.42;1676197;84;21016;-67
2021/09/28 05:29:41;;;;;;;10.13;7.28;;;;;;;8.35;78.24;101011.84;1673231;85;21874;-67
2021/09/28 05:32:08;;;;;;;12.90;7.03;;;;;;;8.39;78.31;101009.38;1673520;85;20985;-67
2021/09/28 05:34:35;;;;;;;11.30;6.80;;;;;;;8.47;78.42;101015.89;1668211;85;21031;-67
2021/09/28 05:37:01;;;;;;;9.63;6.20;;;;;;;8.56;78.51;101014.02;1667760;86;21025;-67
2021/09/28 05:39:28;;;;;;;8.53;7.20;;;;;;;8.68;78.61;101020.78;1662229;86;21057;-67
2021/09/28 05:41:56;;;;;;;12.07;8.63;;;;;;;8.75;78.59;101020.32;1642839;85;21667;-67
2021/09/28 05:44:23;;;;;;;8.78;7.47;;;;;;;8.85;78.64;101021.92;1669085;86;21071;-67
2021/09/28 05:46:49;;;;;;;9.45;7.58;;;;;;;8.95;78.61;101020.88;1698789;84;20952;-66
2021/09/28 05:49:16;;;;;;;8.63;7.15;;;;;;;9.04;78.62;101025.09;1697634;84;21060;-67
2021/09/28 05:51:52;;;;;;;9.90;6.90;;;;;;;9.13;78.57;101022.36;1673413;84;21146;-67
2021/09/28 05:54:20;;;;;;;7.65;6.00;;;;;;;9.14;78.35;101020.94;1698916;84;22508;-67
2021/09/28 05:56:50;;;;;;;10.55;6.55;;;;;;;9.18;78.26;101029.05;1693133;83;21448;-65
2021/09/28 05:59:18;;;;;;;10.55;5.95;;;;;;;9.23;78.11;101027.89;1680662;84;21083;-65
2021/09/28 06:01:45;;;;;;;11.38;7.62;;;;;;;9.26;77.95;101030.33;1696075;84;21482;-66
2021/09/28 06:04:11;;;;;;;11.25;10.10;;;;;;;9.29;77.81;101035.43;1699284;84;21008;-66
2021/09/28 06:06:40;;;;;;;13.13;11.83;;;;;;;9.31;77.51;101033.53;1698988;84;20948;-66
2021/09/28 06:09:09;;;;;;;13.80;10.48;;;;;;;9.35;77.46;101037.18;1697605;83;20973;-67
2021/09/28 06:11:36;;;;;;;9.28;7.08;;;;;;;9.43;77.41;101038.02;1664724;84;20902;-66
2021/09/28 06:14:02;;;;;;;11.12;7.55;;;;;;;9.46;77.18;101035.20;1727901;83;20953;-66
2021/09/28 06:16:29;;;;;;;11.05;9.55;;;;;;;9.44;76.78;101039.23;1706352;82;20972;-67
2021/09/28 06:18:57;;;;;;;10.45;8.28;;;;;;;9.41;76.56;101038.13;1685285;83;20989;-67
2021/09/28 06:21:25;;;;;;;10.80;8.58;;;;;;;9.46;76.59;101043.11;1699175;83;21033;-67
2021/09/28 06:23:53;;;;;;;9.78;8.25;;;;;;;9.50;76.45;101048.55;1697027;83;21106;-67
2021/09/28 06:26:21;;;;;;;10.48;8.80;;;;;;;9.57;76.41;101049.02;1694958;83;21193;-71
2021/09/28 06:28:48;;;;;;;10.25;5.83;;;;;;;9.62;76.33;101049.08;1693291;83;21010;-66
2021/09/28 06:31:14;;;;;;;9.18;5.85;;;;;;;9.69;76.16;101050.85;1649206;84;21742;-67
2021/09/28 06:33:42;;;;;;;8.28;6.03;;;;;;;9.67;75.71;101052.27;1658574;85;21057;-67
2021/09/28 06:36:09;;;;;;;10.95;5.90;;;;;;;9.60;75.40;101056.72;1698750;82;20984;-67
2021/09/28 06:38:36;;;;;;;6.35;5.33;;;;;;;9.56;75.42;101053.92;1718247;82;21090;-67
2021/09/28 06:41:03;;;;;;;9.88;6.55;;;;;;;9.59;75.46;101058.52;1704238;82;21481;-67
2021/09/28 06:43:30;;;;;;;7.58;5.40;;;;;;;9.64;75.32;101059.52;1699599;84;21853;-67
2021/09/28 06:45:59;;;;;;;7.60;5.60;;;;;;;9.64;75.21;101060.37;1700191;84;21562;-67
2021/09/28 06:48:26;;;;;;;8.20;5.28;;;;;;;9.65;75.21;101051.53;1676326;84;21091;-66
2021/09/28 06:50:52;;;;;;;7.30;5.12;;;;;;;9.67;75.14;101058.03;1657782;84;21062;-67
2021/09/28 06:53:19;;;;;;;7.40;5.17;;;;;;;9.68;75.06;101064.52;1699281;84;21137;-67
2021/09/28 06:55:46;;;;;;;10.03;5.33;;;;;;;9.71;74.99;101068.27;1702887;82;21845;-69
2021/09/28 06:58:12;;;;;;;5.37;4.87;;;;;;;9.71;74.82;101069.58;1701888;82;21016;-66
2021/09/28 07:00:38;;;;;;;7.60;5.25;;;;;;;9.71;74.74;101074.86;1702980;84;21059;-66
2021/09/28 07:03:05;;;;;;;11.33;5.55;;;;;;;9.71;74.60;101072.70;1705347;84;21462;-66
2021/09/28 07:05:32;;;;;;;13.83;5.40;;;;;;;9.74;74.69;101077.29;1706359;84;21033;-66
2021/09/28 07:08:00;;;;;;;10.72;5.80;;;;;;;9.84;74.65;101075.38;1682239;84;20964;-66
2021/09/28 07:10:29;;;;;;;9.13;5.25;;;;;;;9.94;74.65;101083.06;1704603;84;20969;-66
2021/09/28 07:12:57;;;;;;;10.35;5.45;;;;;;;10.03;74.49;101075.86;1682514;84;21071;-66
2021/09/28 07:15:23;;;;;;;8.13;5.37;;;;;;;10.04;74.17;101074.95;1676340;85;21382;-66
2021/09/28 07:17:53;;;;;;;12.82;5.37;;;;;;;10.09;74.12;101083.39;1686649;84;20996;-67
2021/09/28 07:20:21;;;;;;;8.08;5.62;;;;;;;10.16;73.90;101075.92;1705901;84;21816;-67
2021/09/28 07:22:49;;;;;;;6.80;5.80;;;;;;;10.25;73.90;101076.19;1706130;84;20971;-67
2021/09/28 07:25:15;;;;;;;9.65;6.40;;;;;;;10.37;73.80;101086.39;1706180;84;21063;-66
2021/09/28 07:27:42;;;;;;;9.63;6.12;;;;;;;10.49;73.71;101089.99;1706053;84;21541;-65
2021/09/28 07:30:11;;;;;;;8.88;6.50;;;;;;;10.56;73.38;101087.31;1681981;84;21449;-65
2021/09/28 07:32:39;;;;;;;11.43;6.08;;;;;;;10.66;73.33;101088.37;1706264;84;21789;-66
2021/09/28 07:35:09;;;;;;;9.13;5.47;;;;;;;10.77;73.08;101095.57;1704607;82;20945;-66
2021/09/28 07:37:36;;;;;;;7.37;5.10;;;;;;;10.87;72.87;101093.98;1701143;84;21040;-66
2021/09/28 07:40:06;;;;;;;13.20;5.70;;;;;;;10.93;72.33;101089.60;1684301;84;21015;-66
2021/09/28 07:42:33;;;;;;;7.50;5.12;;;;;;;10.95;71.89;101096.95;1675248;85;21035;-66
2021/09/28 07:45:03;;;;;;;11.73;5.70;;;;;;;10.97;71.64;101092.39;1657699;86;21939;-66
2021/09/28 07:47:31;;;;;;;9.98;5.85;;;;;;;10.97;71.32;101092.87;1674738;85;21417;-67
2021/09/28 07:49:57;;;;;;;9.83;6.58;;;;;;;10.98;71.27;101092.75;1675470;85;20990;-66
2021/09/28 07:52:25;;;;;;;6.78;5.40;;;;;;;11.00;71.10;101095.28;1685617;84;21060;-67
2021/09/28 07:54:52;;;;;;;9.25;5.22;;;;;;;11.06;71.09;101094.87;1685579;85;21066;-66
2021/09/28 07:57:18;;;;;;;9.23;5.30;;;;;;;11.11;70.94;101094.94;1733606;82;21420;-66
2021/09/28 07:59:46;;;;;;;8.93;4.92;;;;;;;11.13;70.72;101103.59;1718381;82;21031;-67
2021/09/28 08:02:13;;;;;;;7.60;5.25;;;;;;;11.15;70.44;101104.80;1706039;84;21502;-66
2021/09/28 08:04:42;;;;;;;9.45;5.60;;;;;;;11.16;70.41;101100.73;1706137;84;21491;-65
2021/09/28 08:07:12;;;;;;;9.40;4.97;;;;;;;11.16;70.00;101099.41;1706154;84;20971;-65
2021/09/28 08:09:38;;;;;;;12.35;5.78;;;;;;;11.14;69.99;101099.15;1705780;84;21354;-66
2021/09/28 08:12:07;;;;;;;14.55;8.63;;;;;;;11.09;69.85;101100.78;1706170;84;21470;-65
2021/09/28 08:14:34;;;;;;;16.55;9.25;;;;;;;11.15;69.98;101095.55;1706415;84;21059;-65
2021/09/28 08:17:00;;;;;;;11.78;8.00;;;;;;;11.21;70.02;101100.42;1705265;83;21011;-65
2021/09/28 08:19:28;;;;;;;10.13;5.90;;;;;;;11.29;69.85;101101.17;1675215;84;20982;-66
2021/09/28 08:21:56;;;;;;;13.30;6.33;;;;;;;11.39;69.70;101104.89;1685415;85;21716;-66
2021/09/28 08:24:22;;;;;;;10.23;5.58;;;;;;;11.45;69.36;101105.27;1685354;85;21370;-65
2021/09/28 08:29:34;;;;;;;11.20;5.37;;;;;;;11.59;69.56;101100.81;1685856;85;21570;-67
2021/09/28 08:32:03;;;;;;;6.67;5.80;;;;;;;11.70;69.40;101109.66;1686015;84;20973;-68
2021/09/28 08:34:30;;;;;;;10.30;5.95;;;;;;;11.80;69.10;101111.20;1681837;84;21825;-67
2021/09/28 08:37:00;;;;;;;11.25;5.28;;;;;;;11.82;68.92;101107.95;1678036;85;21415;-65
2021/09/28 08:39:26;;;;;;;9.28;5.65;;;;;;;11.89;68.73;101112.33;1678260;85;21484;-65
2021/09/28 08:41:55;;;;;;;11.08;5.03;;;;;;;11.96;68.34;101114.87;1678480;85;21048;-66
2021/09/28 08:44:21;;;;;;;10.63;5.15;;;;;;;11.96;68.11;101117.03;1678643;85;21415;-67
2021/09/28 08:46:48;;;;;;;11.38;4.90;;;;;;;12.02;67.97;101112.63;1679099;84;21816;-66
2021/09/28 08:49:18;;;;;;;11.78;4.97;;;;;;;12.00;67.60;101108.41;1678512;85;20995;-66
2021/09/28 08:51:47;;;;;;;9.50;4.92;;;;;;;11.98;67.55;101105.88;1678474;85;21518;-67
2021/09/28 08:54:13;;;;;;;11.65;4.90;;;;;;;12.03;67.79;101105.53;1658799;85;21103;-66
2021/09/28 08:56:40;;;;;;;12.10;5.58;;;;;;;12.09;67.30;101103.77;1678885;84;20976;-66
2021/09/28 08:59:07;;;;;;;7.90;4.42;;;;;;;12.03;67.46;101109.50;1678361;85;21852;-67
2021/09/28 09:01:37;;;;;;;18.32;5.17;;;;;;;12.01;67.48;101108.30;1678362;85;21426;-66
2021/09/28 09:04:15;;;;;;;6.87;4.65;;;;;;;12.01;67.66;101109.61;1678398;84;21086;-66
2021/09/28 09:06:41;;;;;;;10.45;5.47;;;;;;;12.12;67.75;101112.80;1678226;84;20977;-65
2021/09/28 09:09:08;;;;;;;11.43;5.53;;;;;;;12.22;67.59;101105.84;1678487;85;20972;-66
2021/09/28 09:11:37;;;;;;;10.30;5.30;;;;;;;12.35;67.17;101106.25;1690107;83;21778;-66
2021/09/28 09:14:19;;;;;;;10.08;4.90;;;;;;;12.29;67.18;101099.62;1670559;86;20975;-65
2021/09/28 09:16:49;;;;;;;12.35;5.67;;;;;;;12.33;67.00;101107.21;1654381;86;21062;-65
2021/09/28 09:19:22;;;;;;;9.28;4.80;;;;;;;12.24;66.66;101103.92;1682000;84;21519;-66
2021/09/28 09:21:54;;;;;;;10.93;5.03;;;;;;;12.26;66.77;101102.03;1678588;85;20973;-66
2021/09/28 09:24:49;;;;;;;12.40;5.00;;;;;;;12.40;66.53;101111.58;1678366;84;22656;-67
2021/09/28 09:27:19;;;;;;;9.10;4.95;;;;;;;12.48;66.73;101109.20;1698025;84;21016;-67
2021/09/28 09:30:06;;;;;;;8.18;4.55;;;;;;;12.55;66.50;101114.89;1655804;86;21011;-67
2021/09/28 09:32:56;;;;;;;13.22;5.15;;;;;;;12.68;66.51;101110.81;1672665;85;21035;-65
2021/09/28 09:35:35;;;;;;;13.95;5.28;;;;;;;12.74;66.01;101110.33;1685197;84;21066;-64
2021/09/28 09:38:11;;;;;;;9.80;4.87;;;;;;;12.80;65.64;101111.19;1644767;85;22533;-65
2021/09/28 09:40:43;;;;;;;13.93;5.12;;;;;;;12.88;65.58;101104.82;1663544;84;21023;-66
2021/09/28 09:43:11;;;;;;;8.73;4.50;;;;;;;12.98;65.30;101109.77;1671121;86;21066;-66
2021/09/28 09:45:37;;;;;;;8.53;4.75;;;;;;;13.11;65.43;101102.53;1671356;86;21072;-66
2021/09/28 09:48:26;;;;;;;13.15;4.60;;;;;;;13.23;64.86;101108.73;1644827;87;21041;-66
2021/09/28 09:51:14;;;;;;;11.12;4.05;;;;;;;13.30;64.02;101112.58;1644864;87;21767;-65
2021/09/28 09:53:58;;;;;;;10.53;4.28;;;;;;;13.30;63.96;101113.90;1619964;87;21448;-66
2021/09/28 09:56:50;;;;;;;10.43;4.30;;;;;;;13.45;63.84;101117.16;1658439;86;21033;-66
2021/09/28 09:59:22;;;;;;;11.68;4.30;;;;;;;13.64;63.80;101117.38;1668637;86;21096;-65
2021/09/28 10:01:49;;;;;;;10.58;4.05;;;;;;;13.72;62.74;101106.98;1668599;85;21436;-67
2021/09/28 10:04:18;;;;;;;10.50;4.47;;;;;;;13.79;62.83;101109.13;1668745;86;23968;-67
2021/09/28 10:06:46;;;;;;;11.48;4.55;;;;;;;13.86;62.39;101107.67;1668918;86;21029;-67
2021/09/28 10:09:42;;;;;;;11.57;4.62;;;;;;;13.94;62.31;101106.56;1668214;86;20978;-66
2021/09/28 10:12:09;;;;;;;15.85;4.75;;;;;;;14.10;62.39;101112.80;1668656;86;21540;-66
2021/09/28 10:14:42;;;;;;;10.23;4.65;;;;;;;14.27;61.40;101105.09;1663404;86;20985;-66
2021/09/28 10:17:30;;;;;;;9.00;4.87;;;;;;;14.30;61.08;101106.67;1627100;88;21783;-67
2021/09/28 10:20:04;;;;;;;9.33;4.17;;;;;;;14.26;60.40;101106.06;1626798;88;21473;-66
2021/09/28 10:22:57;;;;;;;14.73;4.45;;;;;;;14.33;60.23;101109.91;1635783;86;21406;-66
2021/09/28 10:25:36;;;;;;;15.28;4.15;;;;;;;14.45;60.29;101113.87;1665978;85;21015;-65
2021/09/28 10:28:12;;;;;;;12.82;4.50;;;;;;;14.66;60.26;101112.05;1639167;87;20994;-65
2021/09/28 10:30:48;;;;;;;12.33;4.00;;;;;;;14.81;59.79;101116.56;1671903;85;22501;-66
2021/09/28 10:33:29;;;;;;;14.03;4.45;;;;;;;15.00;59.64;101117.16;1644750;87;21003;-65
2021/09/28 10:36:14;;;;;;;15.35;4.62;;;;;;;15.21;58.83;101121.11;1655567;84;21446;-65
2021/09/28 10:38:53;;;;;;;15.03;4.08;;;;;;;15.21;57.65;101116.62;1664602;86;20980;-65
2021/09/28 10:41:42;;;;;;;10.88;3.90;;;;;;;15.15;58.06;101112.70;1646579;85;21432;-65
2021/09/28 10:44:37;;;;;;;8.48;3.37;;;;;;;15.26;58.49;101118.91;1668330;86;22488;-65
2021/09/28 10:47:00;;;;;;;9.73;4.05;;;;;;;15.44;57.27;101114.60;1672537;85;20982;-65
2021/09/28 10:49:31;;;;;;;8.90;3.90;;;;;;;15.47;56.63;101114.35;1673758;84;21021;-67
2021/09/28 10:52:24;;;;;;;14.70;3.87;;;;;;;15.63;56.63;101116.52;1662167;85;21574;-66
2021/09/28 10:55:14;;;;;;;14.95;4.00;;;;;;;15.82;55.99;101109.89;1671966;84;20980;-67
2021/09/28 10:58:41;;;;;;;12.23;3.47;;;;;;;15.98;55.34;101108.03;1691843;84;21001;-68
2021/09/28 11:00:49;;;;;;;13.18;3.62;;;;;;;16.05;54.96;101109.17;1687652;84;20973;-66
2021/09/28 11:03:17;;;;;;;13.30;3.75;;;;;;;16.23;53.99;101102.66;1698173;84;20995;-66
2021/09/28 11:05:59;;;;;;;12.98;3.55;;;;;;;16.36;54.29;101103.20;1668582;86;21043;-66
2021/09/28 11:08:26;;;;;;;14.47;4.10;;;;;;;16.57;53.61;101107.87;1673224;85;21044;-66
2021/09/28 11:10:58;;;;;;;14.05;3.87;;;;;;;16.80;52.82;101104.44;1705611;84;21859;-66
2021/09/28 11:13:33;;;;;;;11.90;3.42;;;;;;;16.94;52.17;101104.95;1698127;84;21436;-67
2021/09/28 11:16:04;;;;;;;19.23;3.70;;;;;;;17.08;51.48;101101.34;1700082;83;20984;-66
2021/09/28 11:18:38;;;;;;;15.03;4.10;;;;;;;17.12;50.77;101100.05;1697241;83;20983;-67
2021/09/28 11:21:08;;;;;;;11.05;3.12;;;;;;;17.27;51.00;101100.89;1665893;86;21040;-67
2021/09/28 11:23:35;;;;;;;13.18;3.55;;;;;;;17.44;51.09;101095.61;1643221;86;21814;-67
2021/09/28 11:26:02;;;;;;;16.23;3.67;;;;;;;17.60;50.12;101098.97;1702978;83;21000;-67
2021/09/28 11:28:28;;;;;;;16.95;3.62;;;;;;;17.71;49.70;101093.45;1704841;83;21419;-67
2021/09/28 11:31:04;;;;;;;13.80;3.83;;;;;;;17.86;48.60;101100.97;1700257;84;21661;-66
2021/09/28 11:33:40;;;;;;;15.08;3.87;;;;;;;17.91;48.06;101094.66;1704177;83;21125;-67
2021/09/28 11:36:16;;;;;;;20.20;3.77;;;;;;;17.93;48.19;101096.17;1645287;86;21818;-66
2021/09/28 11:38:46;;;;;;;11.40;3.20;;;;;;;18.00;47.13;101095.91;1691416;84;20996;-66